Time;durP1;ratioP1;P1;durP2;ratioP2;P2;SDS_P1;SDS_P2;PMS_P1;PMS_P2;Temp;Humidity;BMP_temperature;BMP_pressure;BME280_temperature;BME280_humidity;BME280_pressure;Samples;Min_cycle;Max_cycle;Signal;HPM_P1;HPM_P2
2021/03/06 00:01:14;;;;;;;3.87;3.30;;;2.80;99.80;;;;;;5128861;27;20244;-75
2021/03/06 00:03:40;;;;;;;2.90;2.70;;;2.70;99.90;;;;;;5129358;27;20773;-75
2021/03/06 00:06:07;;;;;;;3.37;3.10;;;2.70;99.90;;;;;;5129496;27;20241;-76
2021/03/06 00:08:34;;;;;;;3.73;2.80;;;2.70;99.90;;;;;;5129066;27;20560;-74
2021/03/06 00:11:00;;;;;;;3.10;2.83;;;2.60;99.90;;;;;;5129316;27;20205;-75
2021/03/06 00:13:26;;;;;;;3.10;2.80;;;2.60;99.90;;;;;;5129232;27;20206;-76
2021/03/06 00:15:52;;;;;;;3.87;2.93;;;2.50;99.90;;;;;;5129482;27;20209;-75
2021/03/06 00:18:19;;;;;;;3.03;2.80;;;2.50;99.80;;;;;;5129005;27;20238;-75
2021/03/06 00:20:45;;;;;;;3.50;3.00;;;2.50;99.70;;;;;;5128857;27;20206;-75
2021/03/06 00:23:11;;;;;;;3.40;2.63;;;2.50;99.90;;;;;;5129069;27;20270;-75
2021/03/06 00:25:38;;;;;;;3.87;2.90;;;2.50;99.90;;;;;;5132113;27;20694;-75
2021/03/06 00:28:04;;;;;;;4.70;3.07;;;2.50;99.90;;;;;;5117477;27;20213;-74
2021/03/06 00:30:31;;;;;;;3.03;2.83;;;2.40;99.90;;;;;;5112644;28;20202;-76
2021/03/06 00:32:57;;;;;;;3.10;2.60;;;2.50;99.90;;;;;;5112589;28;20239;-75
2021/03/06 00:35:23;;;;;;;2.90;2.70;;;2.50;99.90;;;;;;5112180;28;20567;-74
2021/03/06 00:37:49;;;;;;;3.40;2.80;;;2.50;99.90;;;;;;5112144;28;20847;-75
2021/03/06 00:40:15;;;;;;;2.90;2.70;;;2.50;99.90;;;;;;5112139;28;20267;-75
2021/03/06 00:42:42;;;;;;;3.63;2.80;;;2.50;99.90;;;;;;5112294;28;20206;-75
2021/03/06 00:45:09;;;;;;;2.80;2.60;;;2.40;99.90;;;;;;5112306;28;20210;-75
2021/03/06 00:47:36;;;;;;;3.63;2.90;;;2.50;99.90;;;;;;5111852;28;20216;-75
2021/03/06 00:50:05;;;;;;;3.60;2.63;;;2.40;99.90;;;;;;5112330;27;20998;-75
2021/03/06 00:52:31;;;;;;;3.03;2.70;;;2.40;99.80;;;;;;5112026;28;20206;-75
2021/03/06 00:54:57;;;;;;;2.60;2.40;;;2.40;99.50;;;;;;5112365;28;20206;-74
2021/03/06 00:57:23;;;;;;;2.97;2.57;;;2.30;99.30;;;;;;5121716;27;20213;-75
2021/03/06 00:59:50;;;;;;;3.17;2.97;;;2.30;99.20;;;;;;5132588;27;20289;-74
2021/03/06 01:02:16;;;;;;;3.23;2.67;;;2.20;99.30;;;;;;5132703;27;20193;-75
2021/03/06 01:04:42;;;;;;;3.90;2.90;;;2.20;99.60;;;;;;5132532;27;20198;-75
2021/03/06 01:07:08;;;;;;;3.40;3.10;;;2.20;99.30;;;;;;5132322;27;20198;-75
2021/03/06 01:09:34;;;;;;;3.70;3.10;;;2.10;99.20;;;;;;5132574;27;20202;-74
2021/03/06 01:12:01;;;;;;;3.57;2.77;;;2.00;99.40;;;;;;5132372;27;20667;-75
2021/03/06 01:14:27;;;;;;;5.13;2.93;;;2.10;99.30;;;;;;5132255;27;20209;-74
2021/03/06 01:16:54;;;;;;;4.00;3.20;;;2.00;99.30;;;;;;5132415;27;20220;-74
2021/03/06 01:19:20;;;;;;;6.33;5.63;;;2.00;99.30;;;;;;5131987;27;20229;-75
2021/03/06 01:21:46;;;;;;;7.57;6.00;;;1.90;99.40;;;;;;5131687;27;20205;-74
2021/03/06 01:24:12;;;;;;;8.93;6.73;;;1.90;99.50;;;;;;5132345;27;20205;-74
2021/03/06 01:26:39;;;;;;;9.30;7.10;;;1.90;99.60;;;;;;5131399;27;20209;-74
2021/03/06 01:29:05;;;;;;;7.90;6.30;;;1.80;99.60;;;;;;5113662;27;20578;-74
2021/03/06 01:31:31;;;;;;;5.93;4.27;;;1.70;99.90;;;;;;5111421;28;20251;-74
2021/03/06 01:33:58;;;;;;;3.07;2.67;;;1.80;99.90;;;;;;5111037;28;20213;-74
2021/03/06 01:36:24;;;;;;;6.13;3.57;;;1.80;99.90;;;;;;5110744;28;20198;-74
2021/03/06 01:38:50;;;;;;;4.23;2.80;;;1.70;99.90;;;;;;5111213;28;20275;-74
2021/03/06 01:41:16;;;;;;;7.17;3.30;;;1.70;99.90;;;;;;5111335;28;20247;-73
2021/03/06 01:43:43;;;;;;;3.40;3.10;;;1.80;99.90;;;;;;5111050;28;20588;-74
2021/03/06 01:46:09;;;;;;;3.37;2.90;;;1.80;99.90;;;;;;5111337;28;20213;-74
2021/03/06 01:48:37;;;;;;;2.83;2.50;;;1.80;99.90;;;;;;5110845;28;20206;-73
2021/03/06 01:51:05;;;;;;;3.23;2.93;;;1.80;99.90;;;;;;5111174;28;20245;-73
2021/03/06 01:53:31;;;;;;;3.67;3.37;;;1.90;99.90;;;;;;5111021;28;20206;-74
2021/03/06 01:55:57;;;;;;;6.30;5.70;;;1.80;99.90;;;;;;5111050;28;20200;-74
2021/03/06 01:58:23;;;;;;;6.20;5.70;;;1.70;99.90;;;;;;5129042;27;20235;-74
2021/03/06 02:00:50;;;;;;;3.67;3.37;;;1.70;99.90;;;;;;5131470;27;20256;-74
2021/03/06 02:03:16;;;;;;;3.23;2.63;;;1.70;99.90;;;;;;5131506;27;20209;-73
2021/03/06 02:05:43;;;;;;;3.90;3.30;;;1.60;99.90;;;;;;5131325;27;20209;-74
2021/03/06 02:08:10;;;;;;;4.50;2.87;;;1.60;99.90;;;;;;5131186;27;20563;-73
2021/03/06 02:10:38;;;;;;;4.23;2.70;;;1.60;99.90;;;;;;5131222;27;20206;-73
2021/03/06 02:13:26;;;;;;;3.10;2.90;;;1.50;99.90;;;;;;5131333;27;20205;-73
2021/03/06 02:16:02;;;;;;;3.03;2.70;;;1.50;99.90;;;;;;5110836;27;20209;-75
2021/03/06 02:18:35;;;;;;;2.70;2.50;;;1.50;99.90;;;;;;5110552;28;20214;-75
2021/03/06 02:21:04;;;;;;;2.77;2.57;;;1.50;99.90;;;;;;5110689;28;20221;-74
2021/03/06 02:23:57;;;;;;;2.87;2.67;;;1.60;99.90;;;;;;5110262;28;20202;-74
2021/03/06 02:26:36;;;;;;;2.80;2.60;;;1.60;99.90;;;;;;5111588;27;20197;-75
2021/03/06 02:29:14;;;;;;;3.10;2.80;;;1.60;99.90;;;;;;5130753;27;20215;-74
2021/03/06 02:31:42;;;;;;;3.90;3.10;;;1.50;99.90;;;;;;5130940;27;20392;-74
2021/03/06 02:34:13;;;;;;;3.03;2.70;;;1.50;99.90;;;;;;5130771;27;20205;-74
2021/03/06 02:36:46;;;;;;;2.97;2.40;;;1.40;99.90;;;;;;5130811;27;20193;-74
2021/03/06 02:39:15;;;;;;;3.17;2.10;;;1.50;99.90;;;;;;5130742;27;20241;-74
2021/03/06 02:41:43;;;;;;;2.93;2.53;;;1.40;99.90;;;;;;5130427;27;20227;-74
2021/03/06 02:44:12;;;;;;;3.27;2.70;;;1.50;99.90;;;;;;5130702;27;20270;-74
2021/03/06 02:46:39;;;;;;;3.53;2.40;;;1.40;99.90;;;;;;5129658;27;20205;-74
2021/03/06 02:49:06;;;;;;;3.07;2.60;;;1.40;99.90;;;;;;5130707;27;20205;-74
2021/03/06 02:51:36;;;;;;;2.53;2.17;;;1.40;99.90;;;;;;5130436;27;20209;-74
2021/03/06 02:54:04;;;;;;;3.67;2.40;;;1.40;99.90;;;;;;5130096;27;20656;-74
2021/03/06 02:56:31;;;;;;;3.93;2.50;;;1.30;99.90;;;;;;5127720;27;20562;-75
2021/03/06 02:59:14;;;;;;;2.57;2.37;;;1.30;99.90;;;;;;5109443;28;20765;-74
2021/03/06 03:01:50;;;;;;;3.27;2.47;;;1.30;99.90;;;;;;5109155;28;20796;-75
2021/03/06 03:04:26;;;;;;;2.50;2.30;;;1.20;99.90;;;;;;5109718;28;20410;-75
2021/03/06 03:07:00;;;;;;;2.60;2.40;;;1.20;99.90;;;;;;5109466;27;20579;-75
2021/03/06 03:09:30;;;;;;;4.23;2.23;;;1.30;99.90;;;;;;5109494;28;20197;-75
2021/03/06 03:12:01;;;;;;;2.47;2.27;;;1.30;99.90;;;;;;5109651;28;20206;-74
2021/03/06 03:14:31;;;;;;;2.30;2.10;;;1.20;99.90;;;;;;5109538;28;20194;-74
2021/03/06 03:17:02;;;;;;;2.50;2.30;;;1.20;99.90;;;;;;5109722;27;20225;-74
2021/03/06 03:19:32;;;;;;;2.43;2.23;;;1.20;99.90;;;;;;5109101;28;20560;-74
2021/03/06 03:22:02;;;;;;;2.40;2.20;;;1.10;99.90;;;;;;5109412;28;20670;-74
2021/03/06 03:24:34;;;;;;;2.30;2.10;;;1.20;99.90;;;;;;5109478;28;20581;-74
2021/03/06 03:27:00;;;;;;;3.07;2.00;;;1.20;99.90;;;;;;5116073;27;20205;-75
2021/03/06 03:29:28;;;;;;;3.40;2.33;;;1.20;99.90;;;;;;5129925;27;20217;-75
2021/03/06 03:31:55;;;;;;;2.93;2.07;;;1.10;99.90;;;;;;5129841;27;20204;-74
2021/03/06 03:34:22;;;;;;;2.57;2.20;;;1.00;99.90;;;;;;5129782;27;20210;-75
2021/03/06 03:36:52;;;;;;;4.43;2.10;;;1.00;99.90;;;;;;5129966;27;20206;-74
2021/03/06 03:39:19;;;;;;;2.03;1.90;;;1.00;99.90;;;;;;5129474;27;20233;-75
2021/03/06 03:41:46;;;;;;;2.53;2.20;;;0.90;99.90;;;;;;5129113;27;20205;-74
2021/03/06 03:44:15;;;;;;;2.70;2.20;;;1.00;99.90;;;;;;5129414;27;20584;-75
2021/03/06 03:46:42;;;;;;;3.73;2.07;;;0.90;99.90;;;;;;5129115;27;20678;-75
2021/03/06 03:49:13;;;;;;;2.67;2.40;;;0.90;99.90;;;;;;5129631;27;20221;-74
2021/03/06 03:51:40;;;;;;;2.40;1.97;;;1.00;99.90;;;;;;5129554;27;20267;-74
2021/03/06 03:54:08;;;;;;;2.37;2.10;;;0.80;99.90;;;;;;5129307;27;20209;-75
2021/03/06 03:56:34;;;;;;;2.10;2.00;;;0.80;99.90;;;;;;5126389;27;20208;-74
2021/03/06 03:59:01;;;;;;;3.27;1.90;;;0.80;99.90;;;;;;5108645;28;20230;-74
2021/03/06 04:01:27;;;;;;;2.43;2.00;;;0.80;99.90;;;;;;5108320;28;20234;-74
2021/03/06 04:03:53;;;;;;;2.43;1.93;;;0.70;99.90;;;;;;5108790;28;20202;-74
2021/03/06 04:06:19;;;;;;;3.73;2.30;;;0.70;99.90;;;;;;5108552;28;20718;-74
2021/03/06 04:08:46;;;;;;;2.23;2.03;;;0.80;99.90;;;;;;5108723;28;20213;-74
2021/03/06 04:11:14;;;;;;;2.57;2.23;;;0.70;99.90;;;;;;5108863;28;20594;-74
2021/03/06 04:13:40;;;;;;;3.40;2.23;;;0.70;99.90;;;;;;5108652;28;20209;-74
2021/03/06 04:16:07;;;;;;;2.90;2.10;;;0.60;99.90;;;;;;5108993;28;20206;-74
2021/03/06 04:18:33;;;;;;;4.20;2.63;;;0.70;99.90;;;;;;5108598;28;20241;-74
2021/03/06 04:20:59;;;;;;;2.33;2.13;;;0.70;99.90;;;;;;5108719;28;20209;-74
2021/03/06 04:23:25;;;;;;;4.50;1.93;;;0.60;99.90;;;;;;5108580;28;20255;-74
2021/03/06 04:25:51;;;;;;;2.70;1.83;;;0.70;99.90;;;;;;5108736;28;20209;-74
2021/03/06 04:28:18;;;;;;;2.63;2.10;;;0.70;99.90;;;;;;5125985;28;20213;-74
2021/03/06 04:30:44;;;;;;;2.00;1.80;;;0.70;99.90;;;;;;5128931;27;20209;-74
2021/03/06 04:33:10;;;;;;;1.83;1.73;;;0.70;99.90;;;;;;5128786;27;20656;-74
2021/03/06 04:35:36;;;;;;;2.27;1.70;;;0.70;99.90;;;;;;5128945;27;20205;-74
2021/03/06 04:38:03;;;;;;;1.90;1.70;;;0.70;99.90;;;;;;5128795;27;20267;-74
2021/03/06 04:40:29;;;;;;;2.60;2.00;;;0.60;99.90;;;;;;5129163;27;20201;-74
2021/03/06 04:42:55;;;;;;;1.90;1.80;;;0.40;99.90;;;;;;5129291;27;20205;-74
2021/03/06 04:45:22;;;;;;;2.13;1.93;;;0.50;99.90;;;;;;5128953;27;20250;-73
2021/03/06 04:47:48;;;;;;;1.77;1.67;;;0.50;99.90;;;;;;5129123;27;20202;-74
2021/03/06 04:50:15;;;;;;;5.00;2.07;;;0.50;99.90;;;;;;5128972;27;20205;-74
2021/03/06 04:52:41;;;;;;;2.47;1.80;;;0.50;99.90;;;;;;5128532;27;20723;-75
2021/03/06 04:55:09;;;;;;;1.77;1.67;;;0.50;99.90;;;;;;5128833;27;20231;-75
2021/03/06 04:57:35;;;;;;;2.03;1.80;;;0.40;99.90;;;;;;5117524;27;20202;-75
2021/03/06 05:00:03;;;;;;;1.83;1.50;;;0.30;99.90;;;;;;5107772;28;20581;-74
2021/03/06 05:02:30;;;;;;;1.83;1.70;;;0.30;99.90;;;;;;5108411;28;20209;-74
2021/03/06 05:04:58;;;;;;;2.13;1.93;;;0.30;99.90;;;;;;5108488;28;20209;-74
2021/03/06 05:07:24;;;;;;;2.47;2.27;;;0.20;99.90;;;;;;5108133;28;20229;-74
2021/03/06 05:09:50;;;;;;;2.27;1.80;;;0.30;99.90;;;;;;5108403;28;20206;-74
2021/03/06 05:12:16;;;;;;;2.10;1.90;;;0.20;99.90;;;;;;5112136;28;20258;-74
2021/03/06 05:14:42;;;;;;;2.07;1.93;;;0.20;99.90;;;;;;5111745;27;20212;-73
2021/03/06 05:17:11;;;;;;;2.23;1.77;;;0.30;99.90;;;;;;5112000;28;20206;-74
2021/03/06 05:19:38;;;;;;;3.83;2.13;;;0.40;99.90;;;;;;5110988;28;20715;-74
2021/03/06 05:22:04;;;;;;;4.67;2.10;;;0.40;99.90;;;;;;5111756;28;20202;-74
2021/03/06 05:24:30;;;;;;;3.30;1.97;;;0.50;99.90;;;;;;5111467;28;20202;-73
2021/03/06 05:27:03;;;;;;;2.20;2.00;;;0.40;99.90;;;;;;5117593;27;20209;-74
2021/03/06 05:29:29;;;;;;;3.20;2.20;;;0.50;99.90;;;;;;5131883;27;20727;-74
2021/03/06 05:31:55;;;;;;;4.00;2.10;;;0.50;99.90;;;;;;5132074;27;20209;-74
2021/03/06 05:34:22;;;;;;;2.33;1.83;;;0.50;99.90;;;;;;5132029;27;20215;-74
2021/03/06 05:36:49;;;;;;;2.30;2.10;;;0.50;99.90;;;;;;5131836;27;21048;-74
2021/03/06 05:39:15;;;;;;;2.90;2.10;;;0.40;99.90;;;;;;5131644;27;20251;-74
2021/03/06 05:41:41;;;;;;;2.07;1.97;;;0.50;99.90;;;;;;5131494;27;20764;-74
2021/03/06 05:44:08;;;;;;;2.27;2.10;;;0.50;99.90;;;;;;5131499;27;20255;-74
2021/03/06 05:46:36;;;;;;;3.37;1.90;;;0.50;99.90;;;;;;5131872;27;20213;-74
2021/03/06 05:49:03;;;;;;;1.97;1.87;;;0.50;99.90;;;;;;5131984;27;20208;-74
2021/03/06 05:51:33;;;;;;;1.90;1.77;;;0.40;99.90;;;;;;5131830;27;20612;-74
2021/03/06 05:54:05;;;;;;;2.80;2.00;;;0.10;99.90;;;;;;5131359;27;20201;-74
2021/03/06 05:56:33;;;;;;;2.70;2.03;;;0.00;99.90;;;;;;5129258;27;20200;-74
2021/03/06 05:59:02;;;;;;;2.30;2.10;;;0.10;99.90;;;;;;5111088;28;20241;-74
2021/03/06 06:01:29;;;;;;;2.80;2.40;;;0.10;99.90;;;;;;5110732;28;20233;-74
2021/03/06 06:03:58;;;;;;;2.37;2.17;;;0.00;99.90;;;;;;5110728;28;20213;-74
2021/03/06 06:06:25;;;;;;;2.73;1.97;;;0.00;99.90;;;;;;5110606;28;20202;-73
2021/03/06 06:08:51;;;;;;;2.10;1.70;;;0.00;99.90;;;;;;5110903;28;20205;-74
2021/03/06 06:11:18;;;;;;;2.30;2.03;;;0.00;99.90;;;;;;5110860;28;20212;-74
2021/03/06 06:13:44;;;;;;;3.27;2.17;;;0.00;99.90;;;;;;5110403;28;20783;-74
2021/03/06 06:16:10;;;;;;;2.47;2.30;;;0.00;99.90;;;;;;5110414;28;20205;-73
2021/03/06 06:18:37;;;;;;;4.03;2.03;;;0.10;99.90;;;;;;5110306;28;20692;-74
2021/03/06 06:21:03;;;;;;;3.43;2.10;;;0.10;99.90;;;;;;5110496;28;20208;-74
2021/03/06 06:23:29;;;;;;;2.13;1.97;;;0.20;99.90;;;;;;5110412;28;20254;-74
2021/03/06 06:25:56;;;;;;;5.43;2.37;;;0.20;99.90;;;;;;5110454;28;20281;-74
2021/03/06 06:28:23;;;;;;;3.10;2.40;;;0.20;99.90;;;;;;5128570;27;20307;-74
2021/03/06 06:31:07;;;;;;;2.37;2.17;;;0.20;99.90;;;;;;5130686;27;20209;-74
2021/03/06 06:33:34;;;;;;;2.97;2.00;;;0.30;99.90;;;;;;5130723;27;20208;-74
2021/03/06 06:36:00;;;;;;;6.30;2.20;;;0.30;99.90;;;;;;5130795;27;20216;-74
2021/03/06 06:38:28;;;;;;;2.70;2.00;;;0.30;99.90;;;;;;5130322;27;20711;-74
2021/03/06 06:40:55;;;;;;;3.23;2.33;;;0.30;99.90;;;;;;5130625;27;20213;-73
2021/03/06 06:43:23;;;;;;;3.10;2.20;;;0.40;99.90;;;;;;5130565;27;20201;-74
2021/03/06 06:45:49;;;;;;;2.97;2.40;;;0.40;99.90;;;;;;5130572;27;20273;-74
2021/03/06 06:48:16;;;;;;;2.60;2.07;;;0.20;99.90;;;;;;5130582;27;20205;-74
2021/03/06 06:50:42;;;;;;;4.93;2.50;;;0.20;99.90;;;;;;5130576;27;20204;-73
2021/03/06 06:53:22;;;;;;;3.80;2.37;;;0.30;99.90;;;;;;5130488;27;20209;-73
2021/03/06 06:55:48;;;;;;;1.70;1.60;;;0.30;99.90;;;;;;5130049;27;20221;-73
2021/03/06 06:58:14;;;;;;;2.90;2.63;;;0.20;99.90;;;;;;5113295;27;20240;-73
2021/03/06 07:00:42;;;;;;;2.03;1.80;;;0.20;99.90;;;;;;5109566;28;20236;-74
2021/03/06 07:03:08;;;;;;;2.50;2.07;;;0.30;99.90;;;;;;5109897;28;20209;-73
2021/03/06 07:05:36;;;;;;;1.77;1.67;;;0.30;99.90;;;;;;5109660;28;20212;-74
2021/03/06 07:08:04;;;;;;;2.00;1.80;;;0.20;99.90;;;;;;5110023;28;20572;-74
2021/03/06 07:10:35;;;;;;;1.80;1.70;;;0.30;99.90;;;;;;5109782;28;20205;-74
2021/03/06 07:13:05;;;;;;;1.80;1.70;;;0.50;99.90;;;;;;5109720;28;20202;-74
2021/03/06 07:15:32;;;;;;;2.10;1.90;;;0.50;99.90;;;;;;5109556;28;20240;-74
2021/03/06 07:18:02;;;;;;;3.13;1.80;;;0.50;99.90;;;;;;5109370;28;20206;-75
2021/03/06 07:20:37;;;;;;;2.57;2.00;;;0.60;99.90;;;;;;5109556;28;20209;-74
2021/03/06 07:23:15;;;;;;;2.30;2.10;;;0.60;99.90;;;;;;5109057;28;20543;-75
2021/03/06 07:25:41;;;;;;;3.33;1.90;;;0.70;99.90;;;;;;5109026;28;20725;-74
2021/03/06 07:28:07;;;;;;;5.47;2.17;;;0.50;99.90;;;;;;5125358;27;20220;-74
2021/03/06 07:30:34;;;;;;;2.47;1.70;;;0.50;99.90;;;;;;5129794;27;20296;-74
2021/03/06 07:33:04;;;;;;;5.17;3.30;;;0.70;99.90;;;;;;5129169;27;20295;-74
2021/03/06 07:35:34;;;;;;;5.63;2.80;;;0.90;99.90;;;;;;5129682;27;20230;-74
2021/03/06 07:38:03;;;;;;;3.17;2.10;;;1.00;99.90;;;;;;5129102;27;20678;-74
2021/03/06 07:40:33;;;;;;;3.37;1.80;;;1.00;99.90;;;;;;5129765;27;20267;-73
2021/03/06 07:43:02;;;;;;;3.03;1.70;;;1.10;99.90;;;;;;5129612;27;20228;-73
2021/03/06 07:45:29;;;;;;;4.80;1.87;;;1.00;99.90;;;;;;5129380;27;20206;-74
2021/03/06 07:48:00;;;;;;;4.33;1.90;;;1.10;99.90;;;;;;5129237;27;20656;-73
2021/03/06 07:50:29;;;;;;;3.03;1.73;;;1.00;99.90;;;;;;5129591;27;20190;-74
2021/03/06 07:52:57;;;;;;;4.30;1.90;;;1.00;99.90;;;;;;5129362;27;20205;-72
2021/03/06 07:55:26;;;;;;;2.53;2.10;;;1.20;99.90;;;;;;5129120;27;20247;-74
2021/03/06 07:58:07;;;;;;;5.43;1.73;;;1.20;99.90;;;;;;5115637;27;20214;-73
2021/03/06 08:00:41;;;;;;;1.80;1.70;;;1.20;99.90;;;;;;5108732;28;20584;-72
2021/03/06 08:03:36;;;;;;;4.77;2.17;;;1.30;99.90;;;;;;5108909;28;20202;-73
2021/03/06 08:06:05;;;;;;;2.93;1.90;;;1.30;99.90;;;;;;5108750;28;20206;-73
2021/03/06 08:08:54;;;;;;;4.30;2.30;;;1.50;99.90;;;;;;5108697;28;20629;-74
2021/03/06 08:11:21;;;;;;;5.90;2.00;;;1.60;99.90;;;;;;5108447;28;20206;-72
2021/03/06 08:13:51;;;;;;;4.37;1.83;;;1.70;99.90;;;;;;5087123;28;20297;-75
2021/03/06 08:16:39;;;;;;;2.50;1.83;;;1.50;99.90;;;;;;5088507;28;20211;-74
2021/03/06 08:19:27;;;;;;;2.53;2.10;;;1.60;99.90;;;;;;5088186;28;20226;-74
2021/03/06 08:21:56;;;;;;;3.83;2.00;;;1.60;99.90;;;;;;5088111;28;20198;-75
2021/03/06 08:24:28;;;;;;;2.43;2.13;;;1.60;99.90;;;;;;5088210;28;20211;-75
2021/03/06 08:27:14;;;;;;;4.37;2.10;;;1.70;99.90;;;;;;5098913;28;20212;-75
2021/03/06 08:29:41;;;;;;;2.57;1.77;;;1.90;99.90;;;;;;5129032;27;20583;-74
2021/03/06 08:32:12;;;;;;;2.60;2.07;;;2.00;99.90;;;;;;5128706;27;20847;-74
2021/03/06 08:34:39;;;;;;;4.20;2.40;;;2.10;99.90;;;;;;5128826;27;20239;-74
2021/03/06 08:37:32;;;;;;;3.13;2.37;;;2.10;99.90;;;;;;5128193;27;20660;-74
2021/03/06 08:40:01;;;;;;;2.77;2.10;;;2.10;99.90;;;;;;5082935;28;20238;-75
2021/03/06 08:42:29;;;;;;;3.27;2.20;;;2.20;99.90;;;;;;5084419;28;20212;-74
2021/03/06 08:44:58;;;;;;;2.67;2.23;;;2.30;99.90;;;;;;5084686;28;20210;-75
2021/03/06 08:47:26;;;;;;;5.23;2.40;;;2.40;99.90;;;;;;5087776;28;20218;-74
2021/03/06 08:49:54;;;;;;;5.87;2.20;;;2.50;99.90;;;;;;5088313;28;20590;-75
2021/03/06 08:52:21;;;;;;;2.37;2.00;;;2.70;99.90;;;;;;5087955;28;20527;-75
2021/03/06 09:01:33;;;;;;;2.67;1.87;;;3.00;99.90;;;;;;5104706;28;20668;-75
2021/03/06 09:10:45;;;;;;;4.37;1.77;;;3.30;99.90;;;;;;5107624;28;20225;-75
2021/03/06 09:23:29;;;;;;;2.27;1.50;;;3.30;99.90;;;;;;5105619;28;20174;-75
2021/03/06 09:25:57;;;;;;;3.80;1.60;;;3.20;99.90;;;;;;5091391;28;20409;-75
2021/03/06 09:28:24;;;;;;;4.13;1.60;;;3.30;99.90;;;;;;5108003;28;20210;-75
2021/03/06 09:30:51;;;;;;;5.30;2.77;;;3.40;99.90;;;;;;5107897;28;20204;-75
2021/03/06 09:33:28;;;;;;;2.13;2.00;;;3.40;99.90;;;;;;5107643;28;20216;-75
2021/03/06 09:36:02;;;;;;;1.60;1.50;;;3.40;99.90;;;;;;5107356;28;20208;-75
2021/03/06 09:38:29;;;;;;;4.17;2.10;;;3.40;99.90;;;;;;5107306;28;20273;-75
2021/03/06 09:40:56;;;;;;;4.63;1.53;;;3.40;99.90;;;;;;5107153;28;20730;-75
2021/03/06 09:51:55;;;;;;;5.50;1.70;;;3.50;99.90;;;;;;4517929;26;20242;-84
2021/03/06 09:54:25;;;;;;;6.23;2.27;;;3.60;99.90;;;;;;4985852;28;20232;-85
2021/03/06 09:56:52;;;;;;;9.00;4.40;;;3.60;99.90;;;;;;4977877;28;20229;-86
2021/03/06 09:59:18;;;;;;;8.50;5.47;;;3.70;99.90;;;;;;4987143;28;20245;-88
2021/03/06 10:01:45;;;;;;;6.43;2.87;;;3.80;99.90;;;;;;4991405;28;20221;-86
2021/03/06 10:04:23;;;;;;;5.67;2.80;;;3.90;99.90;;;;;;4991689;28;20272;-87
2021/03/06 10:06:51;;;;;;;4.90;2.60;;;4.00;99.90;;;;;;4991634;28;20233;-85
2021/03/06 10:09:18;;;;;;;4.80;2.37;;;4.00;99.90;;;;;;4991478;28;20214;-85
2021/03/06 10:11:47;;;;;;;3.40;1.87;;;4.00;99.90;;;;;;4991282;28;20202;-88
2021/03/06 10:14:18;;;;;;;3.07;1.90;;;3.90;99.90;;;;;;4991267;28;20206;-87
2021/03/06 10:16:46;;;;;;;3.00;1.80;;;3.90;99.90;;;;;;4990730;28;20221;-86
2021/03/06 10:19:12;;;;;;;2.97;1.73;;;3.90;99.90;;;;;;4991304;28;20603;-86
2021/03/06 10:21:39;;;;;;;1.87;1.63;;;4.00;99.90;;;;;;4990885;28;20660;-86
2021/03/06 10:24:07;;;;;;;2.13;1.73;;;4.00;99.90;;;;;;4990742;28;20202;-88
2021/03/06 10:26:34;;;;;;;2.53;1.87;;;4.20;99.90;;;;;;4990752;28;20571;-82
2021/03/06 10:29:18;;;;;;;3.83;3.13;;;4.30;99.90;;;;;;4987200;28;20210;-84
2021/03/06 10:31:45;;;;;;;3.30;2.07;;;4.40;99.90;;;;;;4988171;28;20217;-87
2021/03/06 10:34:19;;;;;;;3.67;1.90;;;4.20;99.90;;;;;;4987527;28;20210;-86
2021/03/06 10:37:04;;;;;;;4.33;1.83;;;4.00;99.90;;;;;;4981813;28;20213;-86
2021/03/06 10:39:30;;;;;;;6.30;2.27;;;4.00;99.90;;;;;;4979176;28;20226;-88
2021/03/06 10:41:57;;;;;;;4.77;2.40;;;3.60;99.90;;;;;;4979962;28;20198;-87
2021/03/06 10:44:24;;;;;;;5.33;2.47;;;3.40;99.90;;;;;;4981006;28;20195;-85
2021/03/06 10:46:58;;;;;;;3.57;2.60;;;3.40;99.90;;;;;;4979033;28;20207;-87
2021/03/06 10:49:34;;;;;;;4.77;2.40;;;3.30;99.90;;;;;;4978539;28;20227;-86
2021/03/06 10:52:01;;;;;;;2.20;2.03;;;3.40;99.90;;;;;;4979200;28;20202;-87
2021/03/06 10:54:27;;;;;;;3.57;2.37;;;3.40;99.90;;;;;;4980852;28;20245;-85
2021/03/06 10:57:03;;;;;;;4.67;2.57;;;3.50;99.90;;;;;;4978323;28;20585;-86
2021/03/06 10:59:35;;;;;;;5.33;2.50;;;3.50;99.90;;;;;;4975159;28;20565;-87
2021/03/06 11:02:02;;;;;;;3.33;2.27;;;3.50;99.90;;;;;;4980065;28;20219;-87
2021/03/06 11:04:30;;;;;;;4.03;2.40;;;3.40;99.90;;;;;;4978590;28;20234;-87
2021/03/06 11:06:59;;;;;;;3.50;2.63;;;3.30;99.90;;;;;;4979733;28;20202;-87
2021/03/06 11:09:28;;;;;;;2.80;2.60;;;3.30;99.90;;;;;;4979802;28;20225;-86
2021/03/06 11:11:55;;;;;;;3.17;2.90;;;3.20;99.90;;;;;;4978580;28;20206;-87
2021/03/06 11:14:26;;;;;;;5.00;2.80;;;3.20;99.90;;;;;;4978370;28;20484;-87
2021/03/06 11:16:53;;;;;;;5.37;2.93;;;3.20;99.90;;;;;;4969122;28;20654;-87
2021/03/06 11:19:20;;;;;;;9.07;3.03;;;3.20;99.90;;;;;;4969366;28;20242;-86
2021/03/06 11:21:46;;;;;;;5.57;3.17;;;3.20;99.90;;;;;;4969132;28;20213;-86
2021/03/06 11:24:13;;;;;;;3.57;3.10;;;3.30;99.90;;;;;;4978118;28;20195;-86
2021/03/06 11:26:39;;;;;;;4.40;3.20;;;3.30;99.90;;;;;;4980206;28;20241;-85
2021/03/06 11:29:06;;;;;;;6.17;3.33;;;3.30;99.90;;;;;;4980009;28;20214;-85
2021/03/06 11:31:32;;;;;;;4.70;2.93;;;3.30;99.90;;;;;;4977922;28;20266;-85
2021/03/06 11:33:59;;;;;;;4.50;3.10;;;3.40;99.90;;;;;;4978101;28;20206;-86
2021/03/06 11:36:26;;;;;;;4.50;2.97;;;3.40;99.90;;;;;;4979654;28;20198;-85
2021/03/06 11:38:52;;;;;;;3.47;3.03;;;3.50;99.90;;;;;;4977927;28;20223;-86
2021/03/06 11:41:18;;;;;;;3.40;3.10;;;3.50;99.90;;;;;;4978255;28;20653;-84
2021/03/06 11:43:44;;;;;;;3.63;3.00;;;3.50;99.90;;;;;;4979039;28;20207;-86
2021/03/06 11:46:12;;;;;;;5.90;3.17;;;3.50;99.90;;;;;;4973901;28;20206;-84
2021/03/06 11:48:38;;;;;;;5.07;3.20;;;3.50;99.90;;;;;;4972827;28;20213;-84
2021/03/06 11:51:06;;;;;;;5.80;2.97;;;3.50;99.90;;;;;;4981269;28;20584;-85
2021/03/06 11:53:32;;;;;;;3.77;2.90;;;3.50;99.90;;;;;;4985229;28;20230;-85
2021/03/06 11:55:58;;;;;;;6.13;3.47;;;3.50;99.90;;;;;;4980925;28;20228;-82
2021/03/06 11:58:24;;;;;;;4.83;2.93;;;3.60;99.90;;;;;;4973399;28;20239;-85
2021/03/06 12:00:50;;;;;;;5.07;2.60;;;3.80;99.90;;;;;;4981153;28;20231;-86
2021/03/06 12:03:16;;;;;;;4.10;3.03;;;3.80;99.90;;;;;;4971364;28;20203;-86
2021/03/06 12:05:42;;;;;;;4.40;3.27;;;3.80;99.90;;;;;;4970972;28;20815;-86
2021/03/06 12:08:09;;;;;;;5.83;3.60;;;3.70;99.90;;;;;;4971416;28;20217;-87
2021/03/06 12:10:35;;;;;;;5.37;3.27;;;3.70;99.90;;;;;;4978054;28;20210;-87
2021/03/06 12:13:02;;;;;;;3.73;3.33;;;3.60;99.90;;;;;;4979923;28;20210;-87
2021/03/06 12:15:28;;;;;;;3.63;3.27;;;3.60;99.90;;;;;;4971397;28;20223;-87
2021/03/06 12:17:54;;;;;;;4.00;3.00;;;3.60;99.90;;;;;;4971134;28;20211;-87
2021/03/06 12:20:21;;;;;;;4.70;3.27;;;3.60;99.90;;;;;;4974390;28;20238;-86
2021/03/06 12:22:47;;;;;;;2.83;2.63;;;3.60;99.90;;;;;;4980518;28;20294;-88
2021/03/06 12:25:16;;;;;;;3.63;2.83;;;3.50;99.90;;;;;;4984343;28;20206;-87
2021/03/06 12:27:43;;;;;;;6.03;3.43;;;3.50;99.90;;;;;;4984267;28;20202;-87
2021/03/06 12:30:11;;;;;;;4.77;3.37;;;3.50;99.90;;;;;;4993579;28;20257;-88
2021/03/06 12:32:37;;;;;;;3.10;2.80;;;3.50;99.90;;;;;;4976371;28;20624;-87
2021/03/06 12:35:09;;;;;;;5.20;3.23;;;3.40;99.90;;;;;;4994380;28;20206;-87
2021/03/06 12:37:35;;;;;;;3.90;3.50;;;3.40;99.90;;;;;;4994647;28;20679;-88
2021/03/06 12:40:01;;;;;;;3.23;2.83;;;3.40;99.90;;;;;;4991799;28;20241;-86
2021/03/06 12:42:28;;;;;;;4.07;3.07;;;3.40;99.90;;;;;;4977641;28;20699;-86
2021/03/06 12:44:54;;;;;;;3.80;3.00;;;3.50;99.90;;;;;;4994066;28;20207;-86
2021/03/06 12:47:20;;;;;;;3.43;3.13;;;3.50;99.90;;;;;;4991615;28;20210;-86
2021/03/06 12:49:47;;;;;;;4.10;2.90;;;3.60;99.90;;;;;;4991495;28;20218;-86
2021/03/06 12:52:13;;;;;;;4.53;3.10;;;3.70;99.90;;;;;;4984564;28;20728;-86
2021/03/06 12:54:39;;;;;;;3.50;3.00;;;3.80;99.90;;;;;;4977323;28;20207;-88
2021/03/06 12:57:07;;;;;;;4.70;3.73;;;3.80;99.90;;;;;;4979432;28;20234;-80
2021/03/06 12:59:34;;;;;;;4.70;3.50;;;3.90;99.90;;;;;;4976885;28;20233;-82
2021/03/06 13:02:00;;;;;;;3.70;2.93;;;3.90;99.90;;;;;;4977372;28;20218;-87
2021/03/06 13:04:26;;;;;;;4.10;2.63;;;4.00;99.90;;;;;;4981887;28;20211;-85
2021/03/06 13:06:53;;;;;;;3.43;2.80;;;4.00;99.90;;;;;;4974588;28;20576;-87
2021/03/06 13:09:19;;;;;;;3.90;2.87;;;4.10;99.90;;;;;;4974828;28;20559;-87
2021/03/06 13:11:46;;;;;;;4.27;3.00;;;4.00;99.90;;;;;;4974641;28;20347;-88
2021/03/06 13:14:12;;;;;;;4.20;2.60;;;4.00;99.90;;;;;;4974191;28;20199;-84
2021/03/06 13:16:39;;;;;;;4.70;2.47;;;3.90;99.90;;;;;;4972655;28;20262;-84
2021/03/06 13:19:05;;;;;;;2.80;2.37;;;4.00;99.90;;;;;;4972666;28;20226;-86
2021/03/06 13:21:31;;;;;;;4.53;2.77;;;3.90;99.90;;;;;;4973225;28;20213;-87
2021/03/06 13:23:58;;;;;;;2.50;2.30;;;3.90;99.90;;;;;;4972980;28;20211;-82
2021/03/06 13:26:24;;;;;;;3.10;2.60;;;4.00;99.90;;;;;;4972379;28;20211;-81
2021/03/06 13:28:51;;;;;;;3.70;3.00;;;3.90;99.90;;;;;;4970339;28;20210;-81
2021/03/06 13:31:17;;;;;;;3.00;2.70;;;3.90;99.90;;;;;;4970359;28;20236;-81
2021/03/06 13:33:44;;;;;;;5.87;3.37;;;3.90;99.90;;;;;;4973789;28;20203;-81
2021/03/06 13:36:11;;;;;;;2.93;2.70;;;3.90;99.90;;;;;;4982724;28;20264;-81